createdAt,value
2023-03-20T00:01:39.842Z,49.18
2023-03-20T00:04:06.432Z,49.34
2023-03-20T00:06:33.032Z,49.04
2023-03-20T00:08:59.605Z,49.33
2023-03-20T00:11:41.290Z,49.21
2023-03-20T00:14:14.515Z,49.16
2023-03-20T00:16:43.839Z,49.17
2023-03-20T00:19:17.528Z,49.24
2023-03-20T00:21:46.528Z,49.24
2023-03-20T00:24:13.718Z,48.97
2023-03-20T00:26:40.740Z,49.13
2023-03-20T00:29:11.844Z,48.93
2023-03-20T00:31:39.829Z,49.11
2023-03-20T00:34:12.996Z,49.18
2023-03-20T00:36:39.741Z,48.76
2023-03-20T00:39:06.802Z,49.11
2023-03-20T00:41:39.063Z,49.18
2023-03-20T00:44:27.962Z,49.13
2023-03-20T00:47:11.380Z,49.13
2023-03-20T00:49:38.364Z,49.24
2023-03-20T00:52:05.686Z,49.00
2023-03-20T00:54:32.541Z,48.94
2023-03-20T00:57:07.826Z,48.86
2023-03-20T00:59:38.277Z,49.10
2023-03-20T01:02:05.169Z,48.90
2023-03-20T01:04:37.893Z,48.94
2023-03-20T01:07:05.560Z,48.95
2023-03-20T01:09:32.133Z,49.05
2023-03-20T01:12:03.113Z,49.23
2023-03-20T01:14:30.057Z,49.17
2023-03-20T01:16:56.630Z,49.12
2023-03-20T01:19:23.181Z,48.63
2023-03-20T01:21:50.245Z,48.75
2023-03-20T01:24:16.746Z,48.51
2023-03-20T01:26:44.962Z,48.60
2023-03-20T01:29:23.499Z,48.78
2023-03-20T01:31:51.878Z,49.08
2023-03-20T01:34:19.706Z,49.27
2023-03-20T01:36:51.572Z,49.10
2023-03-20T01:39:19.272Z,49.16
2023-03-20T01:41:47.130Z,49.32
2023-03-20T01:44:19.926Z,48.82
2023-03-20T01:46:46.784Z,48.84
2023-03-20T01:49:19.167Z,48.59
2023-03-20T01:51:46.714Z,48.75
2023-03-20T01:54:16.628Z,49.15
2023-03-20T01:56:50.999Z,48.69
2023-03-20T01:59:24.628Z,48.66
2023-03-20T02:01:51.244Z,48.85
2023-03-20T02:04:21.311Z,49.04
2023-03-20T02:06:48.061Z,49.25
2023-03-20T02:09:14.687Z,48.72
2023-03-20T02:11:43.587Z,48.86
2023-03-20T02:14:11.198Z,48.93
2023-03-20T02:16:37.751Z,48.82
2023-03-20T02:19:07.730Z,48.97
2023-03-20T02:21:58.622Z,49.13
2023-03-20T02:24:46.115Z,48.93
2023-03-20T02:27:38.862Z,48.93
2023-03-20T02:30:24.392Z,48.83
2023-03-20T02:33:09.668Z,48.95
2023-03-20T02:35:54.325Z,48.54
2023-03-20T02:38:33.193Z,48.83
2023-03-20T02:41:30.635Z,48.61
2023-03-20T02:44:12.957Z,48.64
2023-03-20T02:46:51.314Z,48.35
2023-03-20T02:49:42.562Z,48.59
2023-03-20T02:52:24.292Z,48.58
2023-03-20T02:55:08.625Z,48.59
2023-03-20T02:57:41.174Z,49.23
2023-03-20T03:00:21.309Z,48.63
2023-03-20T03:02:58.430Z,48.72
2023-03-20T03:05:32.318Z,48.44
2023-03-20T03:08:02.768Z,48.58
2023-03-20T03:10:36.905Z,48.58
2023-03-20T03:13:07.780Z,48.39
2023-03-20T03:15:45.316Z,48.72
2023-03-20T03:18:17.480Z,48.40
2023-03-20T03:20:45.798Z,48.49
2023-03-20T03:23:26.790Z,48.72
2023-03-20T03:25:55.791Z,48.81
2023-03-20T03:28:29.912Z,48.85
2023-03-20T03:30:58.954Z,48.62
2023-03-20T03:33:29.667Z,48.44
2023-03-20T03:36:08.736Z,48.50
2023-03-20T03:38:45.988Z,48.56
2023-03-20T03:41:18.463Z,48.40
2023-03-20T03:44:05.356Z,48.78
2023-03-20T03:46:53.146Z,48.38
2023-03-20T03:49:26.417Z,48.38
2023-03-20T03:51:58.482Z,48.89
2023-03-20T03:54:31.305Z,48.34
2023-03-20T03:57:01.283Z,48.12
2023-03-20T03:59:37.830Z,48.54
2023-03-20T04:02:08.491Z,48.94
2023-03-20T04:04:40.397Z,48.75
2023-03-20T04:07:06.923Z,47.92
2023-03-20T04:09:33.673Z,48.46
2023-03-20T04:12:00.356Z,48.27
2023-03-20T04:14:27.266Z,48.22
2023-03-20T04:16:53.758Z,47.78
2023-03-20T04:19:20.293Z,48.66
2023-03-20T04:21:47.040Z,48.31
2023-03-20T04:24:13.623Z,48.59
2023-03-20T04:26:40.491Z,48.37
2023-03-20T04:29:07.043Z,48.60
2023-03-20T04:31:33.658Z,48.75
2023-03-20T04:34:00.266Z,48.28
2023-03-20T04:36:26.792Z,48.44
2023-03-20T04:38:55.213Z,48.06
2023-03-20T04:41:23.592Z,48.35
2023-03-20T04:43:50.212Z,47.87
2023-03-20T04:46:16.856Z,48.21
2023-03-20T04:48:43.464Z,48.03
2023-03-20T04:51:10.400Z,48.21
2023-03-20T04:53:37.151Z,48.23
2023-03-20T04:56:03.751Z,48.33
2023-03-20T04:58:30.282Z,47.95
2023-03-20T05:00:56.878Z,47.98
2023-03-20T05:03:24.209Z,48.17
2023-03-20T05:05:51.014Z,48.15
2023-03-20T05:08:17.597Z,48.20
2023-03-20T05:10:44.222Z,47.76
2023-03-20T05:13:10.977Z,47.41
2023-03-20T05:15:37.865Z,47.71
2023-03-20T05:18:04.531Z,47.48
2023-03-20T05:20:31.162Z,47.72
2023-03-20T05:22:57.641Z,47.66
2023-03-20T05:25:24.143Z,47.45
2023-03-20T05:27:50.665Z,47.55
2023-03-20T05:30:17.556Z,47.84
2023-03-20T05:32:44.212Z,47.58
2023-03-20T05:35:11.377Z,47.67
2023-03-20T05:37:39.485Z,47.82
2023-03-20T05:40:07.280Z,47.94
2023-03-20T05:42:33.882Z,47.69
2023-03-20T05:45:00.573Z,47.39
2023-03-20T05:47:27.203Z,47.72
2023-03-20T05:49:53.804Z,47.18
2023-03-20T05:52:20.398Z,47.96
2023-03-20T05:54:47.432Z,47.34
2023-03-20T05:57:14.026Z,47.82
2023-03-20T05:59:40.799Z,47.20
2023-03-20T06:02:07.467Z,47.44
2023-03-20T06:04:35.003Z,47.85
2023-03-20T06:07:01.604Z,47.92
2023-03-20T06:09:28.185Z,47.24
2023-03-20T06:11:54.707Z,47.91
2023-03-20T06:14:21.262Z,47.29
2023-03-20T06:16:47.977Z,47.58
2023-03-20T06:19:14.557Z,47.61
2023-03-20T06:21:41.113Z,47.04
2023-03-20T06:24:07.802Z,47.46
2023-03-20T06:26:34.315Z,47.44
2023-03-20T06:29:01.598Z,47.40
2023-03-20T06:31:28.214Z,47.45
2023-03-20T06:33:54.790Z,46.87
2023-03-20T06:36:21.306Z,47.18
2023-03-20T06:38:47.862Z,47.96
2023-03-20T06:41:27.781Z,47.38
2023-03-20T06:44:00.457Z,47.31
2023-03-20T06:46:26.970Z,47.58
2023-03-20T06:48:53.524Z,47.62
2023-03-20T06:51:20.098Z,47.49
2023-03-20T06:53:46.675Z,47.32
2023-03-20T06:56:13.500Z,47.62
2023-03-20T06:58:40.075Z,47.32
2023-03-20T07:01:11.306Z,46.78
2023-03-20T07:03:37.851Z,46.96
2023-03-20T07:06:04.914Z,46.48
2023-03-20T07:08:32.570Z,47.28
2023-03-20T07:11:01.283Z,47.36
2023-03-20T07:13:28.340Z,46.94
2023-03-20T07:16:04.046Z,46.83
2023-03-20T07:18:31.584Z,46.48
2023-03-20T07:21:02.370Z,46.65
2023-03-20T07:23:30.756Z,47.15
2023-03-20T07:25:58.247Z,46.69
2023-03-20T07:28:24.928Z,46.81
2023-03-20T07:30:51.917Z,46.79
2023-03-20T07:33:18.606Z,46.49
2023-03-20T07:35:45.350Z,46.68
2023-03-20T07:38:11.903Z,46.68
2023-03-20T07:40:38.431Z,46.52
2023-03-20T07:43:04.987Z,46.67
2023-03-20T07:45:32.760Z,46.89
2023-03-20T07:47:59.413Z,46.45
2023-03-20T07:50:25.924Z,46.19
2023-03-20T07:52:52.427Z,46.95
2023-03-20T07:55:18.933Z,46.97
2023-03-20T07:57:45.572Z,46.43
2023-03-20T08:00:12.740Z,46.06
2023-03-20T08:02:39.258Z,46.66
2023-03-20T08:05:06.309Z,46.88
2023-03-20T08:07:33.122Z,46.89
2023-03-20T08:10:00.105Z,46.57
2023-03-20T08:12:27.013Z,46.72
2023-03-20T08:14:53.604Z,46.52
2023-03-20T08:17:21.897Z,46.24
2023-03-20T08:19:48.522Z,46.15
2023-03-20T08:22:15.139Z,46.30
2023-03-20T08:24:41.725Z,46.47
2023-03-20T08:27:08.471Z,45.91
2023-03-20T08:29:35.759Z,46.24
2023-03-20T08:32:02.277Z,46.28
2023-03-20T08:34:28.826Z,46.20
2023-03-20T08:36:55.671Z,45.78
2023-03-20T08:39:22.314Z,45.98
2023-03-20T08:41:49.690Z,46.34
2023-03-20T08:44:16.492Z,45.95
2023-03-20T08:46:44.782Z,46.56
2023-03-20T08:49:11.317Z,46.23
2023-03-20T08:51:37.804Z,46.09
2023-03-20T08:54:06.058Z,46.44
2023-03-20T08:56:32.614Z,46.02
2023-03-20T08:58:59.186Z,46.76
2023-03-20T09:01:35.313Z,46.31
2023-03-20T09:04:08.836Z,46.46
2023-03-20T09:06:39.904Z,45.97
2023-03-20T09:09:06.744Z,46.25
2023-03-20T09:11:33.787Z,46.34
2023-03-20T09:14:00.691Z,46.02
2023-03-20T09:16:28.236Z,46.09
2023-03-20T09:18:55.152Z,45.99
2023-03-20T09:21:21.692Z,46.00
2023-03-20T09:23:48.206Z,46.46
2023-03-20T09:26:14.724Z,45.95
2023-03-20T09:28:41.253Z,45.61
2023-03-20T09:31:07.834Z,46.06
2023-03-20T09:33:34.431Z,45.95
2023-03-20T09:36:01.248Z,45.76
2023-03-20T09:38:27.822Z,45.87
2023-03-20T09:40:57.578Z,46.08
2023-03-20T09:43:33.083Z,46.20
2023-03-20T09:46:25.860Z,46.37
2023-03-20T09:49:26.496Z,46.38
2023-03-20T09:51:59.120Z,46.08
2023-03-20T09:54:53.535Z,46.56
2023-03-20T09:57:39.395Z,45.96
2023-03-20T10:00:28.354Z,46.09
2023-03-20T10:03:03.402Z,45.51
2023-03-20T10:05:32.470Z,45.59
2023-03-20T10:08:03.044Z,45.74
2023-03-20T10:10:46.642Z,45.73
2023-03-20T10:13:37.157Z,45.73
2023-03-20T10:16:09.552Z,45.75
2023-03-20T10:18:40.712Z,45.64
2023-03-20T10:21:18.596Z,45.91
2023-03-20T10:24:03.777Z,46.25
2023-03-20T10:26:35.083Z,46.06
2023-03-20T10:29:18.910Z,45.77
2023-03-20T10:32:08.817Z,46.14
2023-03-20T10:34:41.811Z,45.87
2023-03-20T10:37:17.178Z,46.02
2023-03-20T10:40:05.985Z,46.13
2023-03-20T10:42:40.902Z,46.04
2023-03-20T10:45:25.788Z,46.03
2023-03-20T10:47:52.723Z,45.54
2023-03-20T10:50:23.886Z,45.50
2023-03-20T10:52:53.837Z,45.89
2023-03-20T10:55:34.941Z,45.63
2023-03-20T10:58:13.420Z,45.84
2023-03-20T11:00:41.149Z,45.70
2023-03-20T11:03:22.440Z,46.02
2023-03-20T11:06:09.295Z,45.86
2023-03-20T11:08:42.519Z,45.75
2023-03-20T11:11:09.756Z,46.15
2023-03-20T11:13:40.125Z,46.13
2023-03-20T11:16:22.079Z,46.24
2023-03-20T11:18:51.078Z,46.29
2023-03-20T11:21:29.186Z,46.30
2023-03-20T11:23:56.201Z,46.06
2023-03-20T11:26:39.072Z,45.94
2023-03-20T11:29:07.934Z,45.84
2023-03-20T11:31:37.374Z,45.99
2023-03-20T11:34:06.950Z,46.50
2023-03-20T11:36:35.526Z,45.98
2023-03-20T11:39:14.525Z,46.26
2023-03-20T11:41:50.178Z,46.21
2023-03-20T11:44:31.732Z,46.18
2023-03-20T11:47:26.271Z,46.05
2023-03-20T11:49:59.518Z,46.18
2023-03-20T11:52:32.929Z,46.18
2023-03-20T11:55:07.000Z,46.27
2023-03-20T11:57:41.889Z,46.49
2023-03-20T12:00:11.439Z,46.14
2023-03-20T12:02:41.295Z,46.32
2023-03-20T12:05:29.987Z,46.19
2023-03-20T12:08:00.967Z,46.12
2023-03-20T12:10:32.918Z,46.74
2023-03-20T12:13:02.907Z,46.26
2023-03-20T12:15:34.246Z,46.40
2023-03-20T12:18:28.989Z,46.24
2023-03-20T12:21:09.667Z,46.42
2023-03-20T12:23:48.162Z,45.99
2023-03-20T12:27:14.081Z,46.50
2023-03-20T12:29:50.146Z,46.35
2023-03-20T12:32:41.609Z,46.16
2023-03-20T12:35:41.213Z,46.50
2023-03-20T12:38:29.684Z,46.40
2023-03-20T12:41:27.479Z,46.68
2023-03-20T12:44:31.746Z,46.39
2023-03-20T12:47:19.889Z,46.93
2023-03-20T12:50:19.358Z,46.61
2023-03-20T12:52:55.213Z,46.42
2023-03-20T12:55:31.617Z,46.92
2023-03-20T12:58:14.658Z,46.84
2023-03-20T13:01:06.214Z,46.79
2023-03-20T13:04:09.626Z,47.02
2023-03-20T13:06:53.341Z,47.22
2023-03-20T13:09:36.686Z,46.71
2023-03-20T13:12:15.437Z,47.01
2023-03-20T13:14:52.735Z,46.67
2023-03-20T13:17:31.752Z,47.08
2023-03-20T13:20:04.453Z,46.70
2023-03-20T13:22:53.835Z,47.36
2023-03-20T13:25:26.200Z,46.70
2023-03-20T13:28:20.975Z,47.11
2023-03-20T13:31:27.087Z,47.14
2023-03-20T13:34:25.845Z,47.06
2023-03-20T13:37:23.882Z,47.24
2023-03-20T13:40:13.908Z,47.06
2023-03-20T13:43:05.400Z,46.85
2023-03-20T13:45:38.540Z,47.61
2023-03-20T13:48:31.095Z,47.27
2023-03-20T13:50:58.700Z,47.53
2023-03-20T13:53:33.514Z,47.34
2023-03-20T13:56:05.436Z,47.28
2023-03-20T13:58:41.168Z,47.33
2023-03-20T14:01:19.810Z,47.32
2023-03-20T14:03:47.333Z,47.34
2023-03-20T14:06:27.972Z,47.72
2023-03-20T14:08:54.669Z,46.98
2023-03-20T14:11:21.242Z,47.56
2023-03-20T14:13:55.322Z,47.61
2023-03-20T14:16:22.566Z,47.58
2023-03-20T14:19:04.586Z,47.81
2023-03-20T14:21:31.268Z,47.15
2023-03-20T14:24:03.340Z,47.33
2023-03-20T14:26:34.592Z,47.20
2023-03-20T14:29:20.417Z,47.05
2023-03-20T14:31:52.128Z,47.54
2023-03-20T14:34:24.657Z,47.89
2023-03-20T14:37:05.682Z,47.65
2023-03-20T14:39:43.950Z,47.42
2023-03-20T14:42:19.722Z,47.83
2023-03-20T14:45:19.237Z,48.06
2023-03-20T14:47:54.774Z,47.88
2023-03-20T14:50:36.719Z,47.58
2023-03-20T14:53:16.181Z,47.55
2023-03-20T14:55:57.979Z,47.70
2023-03-20T14:58:33.522Z,47.56
2023-03-20T15:01:06.356Z,48.16
2023-03-20T15:03:33.696Z,47.95
2023-03-20T15:06:05.261Z,47.44
2023-03-20T15:08:36.049Z,47.82
2023-03-20T15:11:08.782Z,47.89
2023-03-20T15:13:37.650Z,47.89
2023-03-20T15:16:13.501Z,48.27
2023-03-20T15:18:46.457Z,48.51
2023-03-20T15:21:19.968Z,48.48
2023-03-20T15:23:48.094Z,47.89
2023-03-20T15:26:18.864Z,47.82
2023-03-20T15:28:47.011Z,47.94
2023-03-20T15:31:30.256Z,48.08
2023-03-20T15:33:57.800Z,48.39
2023-03-20T15:36:28.350Z,48.09
2023-03-20T15:39:14.362Z,48.22
2023-03-20T15:41:46.317Z,48.51
2023-03-20T15:44:15.910Z,48.83
2023-03-20T15:47:01.372Z,51.12
2023-03-20T15:49:30.555Z,50.19
2023-03-20T15:52:00.819Z,49.69
2023-03-20T15:54:27.729Z,49.08
2023-03-20T15:56:58.172Z,49.23
2023-03-20T15:59:29.275Z,48.90
2023-03-20T16:01:58.205Z,48.84
2023-03-20T16:04:26.154Z,48.14
2023-03-20T16:07:00.498Z,48.60
2023-03-20T16:09:28.319Z,47.45
2023-03-20T16:12:00.142Z,47.24
2023-03-20T16:14:31.592Z,46.75
2023-03-20T16:17:00.355Z,46.91
2023-03-20T16:19:29.060Z,46.79
2023-03-20T16:22:03.362Z,46.38
2023-03-20T16:24:36.591Z,46.04
2023-03-20T16:27:08.405Z,45.87
2023-03-20T16:29:37.018Z,45.98
2023-03-20T16:32:38.617Z,45.58
2023-03-20T16:35:20.057Z,45.11
2023-03-20T16:37:55.479Z,45.06
2023-03-20T16:40:34.119Z,44.96
2023-03-20T16:43:18.660Z,44.49
2023-03-20T16:45:49.175Z,44.56
2023-03-20T16:48:15.626Z,44.57
2023-03-20T16:50:45.302Z,44.51
2023-03-20T16:53:15.820Z,44.00
2023-03-20T16:55:45.721Z,44.45
2023-03-20T16:58:21.801Z,44.09
2023-03-20T17:00:52.887Z,44.13
2023-03-20T17:03:26.011Z,44.02
2023-03-20T17:05:59.575Z,43.83
2023-03-20T17:08:41.394Z,44.06
2023-03-20T17:11:14.510Z,44.18
2023-03-20T17:13:41.793Z,44.34
2023-03-20T17:16:17.972Z,44.25
2023-03-20T17:18:46.445Z,44.30
2023-03-20T17:21:13.885Z,44.31
2023-03-20T17:23:40.910Z,44.14
2023-03-20T17:26:12.798Z,44.16
2023-03-20T17:28:39.806Z,44.45
2023-03-20T17:31:06.685Z,44.06
2023-03-20T17:33:33.853Z,45.02
2023-03-20T17:36:00.916Z,44.79
2023-03-20T17:38:27.766Z,44.65
2023-03-20T17:40:54.353Z,45.16
2023-03-20T17:43:21.099Z,45.45
2023-03-20T17:45:47.909Z,45.21
2023-03-20T17:48:17.892Z,45.44
2023-03-20T17:50:45.859Z,45.47
2023-03-20T17:53:15.769Z,45.40
2023-03-20T17:55:42.381Z,45.08
2023-03-20T17:58:17.139Z,45.38
2023-03-20T18:00:44.684Z,45.09
2023-03-20T18:03:12.044Z,45.29
2023-03-20T18:05:39.655Z,44.87
2023-03-20T18:08:14.127Z,45.27
2023-03-20T18:10:41.186Z,44.84
2023-03-20T18:13:07.871Z,44.96
2023-03-20T18:15:34.538Z,45.06
2023-03-20T18:18:01.221Z,44.84
2023-03-20T18:20:33.431Z,44.72
2023-03-20T18:23:00.219Z,44.87
2023-03-20T18:25:27.402Z,44.67
2023-03-20T18:27:55.978Z,44.60
2023-03-20T18:30:26.043Z,44.64
2023-03-20T18:32:52.760Z,44.48
2023-03-20T18:35:19.283Z,44.74
2023-03-20T18:37:46.030Z,44.32
2023-03-20T18:40:23.262Z,44.54
2023-03-20T18:42:49.805Z,44.82
2023-03-20T18:45:16.949Z,44.62
2023-03-20T18:47:43.512Z,45.07
2023-03-20T18:50:37.511Z,44.92
2023-03-20T18:53:06.502Z,44.79
2023-03-20T18:55:34.076Z,45.34
2023-03-20T18:58:03.775Z,45.29
2023-03-20T19:00:40.575Z,45.75
2023-03-20T19:03:08.296Z,45.58
2023-03-20T19:05:34.881Z,45.21
2023-03-20T19:08:03.195Z,45.63
2023-03-20T19:10:38.826Z,46.30
2023-03-20T19:13:07.469Z,45.99
2023-03-20T19:15:36.369Z,46.19
2023-03-20T19:18:09.224Z,46.63
2023-03-20T19:20:42.147Z,46.38
2023-03-20T19:23:11.133Z,46.51
2023-03-20T19:25:38.517Z,46.57
2023-03-20T19:28:05.528Z,46.71
2023-03-20T19:30:38.219Z,46.42
2023-03-20T19:33:06.912Z,46.66
2023-03-20T19:38:22.130Z,47.23
2023-03-20T19:40:53.099Z,47.23
2023-03-20T19:43:23.080Z,47.10
2023-03-20T19:45:59.304Z,46.94
2023-03-20T19:48:46.004Z,47.79
2023-03-20T19:51:18.228Z,47.74
2023-03-20T19:53:46.009Z,47.46
2023-03-20T19:56:14.333Z,47.79
2023-03-20T19:58:41.100Z,47.42
2023-03-20T20:01:15.087Z,48.03
2023-03-20T20:03:42.258Z,47.60
2023-03-20T20:06:08.833Z,48.31
2023-03-20T20:08:46.909Z,48.08
2023-03-20T20:11:15.504Z,47.89
2023-03-20T20:14:04.086Z,48.45
2023-03-20T20:16:29.636Z,48.01
2023-03-20T20:18:56.209Z,48.71
2023-03-20T20:24:09.294Z,48.39
2023-03-20T20:26:41.245Z,48.29
2023-03-20T20:29:14.382Z,48.45
2023-03-20T20:31:40.990Z,48.43
2023-03-20T20:35:07.372Z,48.69
2023-03-20T20:39:41.010Z,48.63
2023-03-20T20:42:07.617Z,48.82
2023-03-20T20:44:34.654Z,48.40
2023-03-20T20:47:01.205Z,48.77
2023-03-20T20:49:27.783Z,48.94
2023-03-20T20:51:54.339Z,49.01
2023-03-20T20:54:21.298Z,49.03
2023-03-20T20:56:47.847Z,48.56
2023-03-20T20:59:14.423Z,48.99
2023-03-20T21:01:41.144Z,49.00
2023-03-20T21:04:07.962Z,48.82
2023-03-20T21:07:05.757Z,48.84
2023-03-20T21:09:21.030Z,48.99
2023-03-20T21:11:47.661Z,49.18
2023-03-20T21:14:14.498Z,49.12
2023-03-20T21:16:40.996Z,49.09
2023-03-20T21:19:07.695Z,48.91
2023-03-20T21:21:35.661Z,48.70
2023-03-20T21:24:02.661Z,49.10
2023-03-20T21:26:29.344Z,49.26
2023-03-20T21:28:55.914Z,48.87
2023-03-20T21:31:30.878Z,49.23
2023-03-20T21:33:57.877Z,48.99
2023-03-20T21:36:24.873Z,48.70
2023-03-20T21:39:07.786Z,49.05
2023-03-20T21:41:37.626Z,49.08
2023-03-20T21:44:05.554Z,49.38
2023-03-20T22:03:33.714Z,49.08
2023-03-20T22:15:11.925Z,49.21
2023-03-20T22:20:44.734Z,49.38
2023-03-20T22:26:18.282Z,49.17
2023-03-20T22:34:44.974Z,49.02
2023-03-20T22:37:42.570Z,48.90
2023-03-20T22:45:16.250Z,49.26
2023-03-20T22:47:42.940Z,49.05
2023-03-20T22:50:10.115Z,49.22
2023-03-20T22:52:49.140Z,49.15
2023-03-20T22:55:17.016Z,49.05
2023-03-20T22:57:52.837Z,49.33
2023-03-20T23:00:22.801Z,49.15
2023-03-20T23:02:52.891Z,48.95
2023-03-20T23:05:19.548Z,49.41
2023-03-20T23:07:46.166Z,49.10
2023-03-20T23:10:15.592Z,48.85
2023-03-20T23:12:44.066Z,49.28
2023-03-20T23:15:11.178Z,49.33
2023-03-20T23:17:37.770Z,49.18
2023-03-20T23:20:12.627Z,49.03
2023-03-20T23:22:39.810Z,49.19
2023-03-20T23:25:16.446Z,49.03
2023-03-20T23:27:47.420Z,49.30
2023-03-20T23:30:14.782Z,49.30
2023-03-20T23:32:41.538Z,49.20
2023-03-20T23:35:08.987Z,49.43
2023-03-20T23:37:36.260Z,49.19
2023-03-20T23:40:04.529Z,49.48
2023-03-20T23:42:31.380Z,49.42
2023-03-20T23:45:04.334Z,49.09
2023-03-20T23:50:30.003Z,49.29
2023-03-20T23:53:13.129Z,49.14
2023-03-20T23:55:46.227Z,49.18
2023-03-20T23:58:13.161Z,49.68
